Portada
METAR-TAF:

METAR-TAF

Aeroports :

Aeroport de Kirkenes-Hoybuktmon

Kirkenes, Noruega

latitud: 69-44N, longitud: 029-54E, altitud: 9 m

Observació

L'informe es va fer fa 20 minuts, a les 21:50 UTC
Vent 4 kt del Nord-Oest
Temperatura 6°C
Humitat 81%
Pressió 1025 hPa
Visibilitat 10 km o més

METAR: ENKR 242150Z AUTO 31004KT 9999 OVC033/// 06/03 Q1025 RMK WIND 731FT 32007KT

Hora: 00:10 (22:10 UTC)

Pronòstic

L'informe es va fer fa 2 hores i 10 minuts, a les 20:00 UTC
Pronòstic vàlid del 24 a les 21 UTC al 25 a les 06 UTC
Vent 8 kt del Nord
Visibilitat 10 km o més
Escasses núvols a una alçada de 1000 ft
Cel ennuvolat a una alçada de 2500 ft
Probabilitat 30% :
Temporalment
l' 25 a les 03 UTC al 25 a les 06 UTC
Cel ennuvolat a una alçada de 1200 ft

TAF: ENKR 242000Z 2421/2506 36008KT 9999 FEW010 BKN025 PROB30 TEMPO 2503/2506 BKN012

Observacions i pronòstics meteorològics de més de 4000 aeroports (METAR i TAF).

Les estacions disponibles són els punts grocs i vermells al mapa.

Posi el ratolí al punt desitjat per veure el nom de l'estació.

Feu clic per veure les observacions i els pronòstics meteorològics.

Per canviar el mapa: feu clic els botons verds amb una creu de color negre per apropar; al botó verd amb un guió per allunyar la imatge; o en les fletxes verdes per a mapes adjacents.


METAR-TAF: